Mareta — 9HA3013 — position and weather

sailwx.info

Track history (hours):
 
Tides and Currents Weather Stations Pressure Air Temp Water Temp Dewpoint Dewpoint Depression Visibility Wind Speed Wind Dir Waves Ship Positions

Mareta

Last reported at 2017-Nov-15 22:26 UTC. Time now 2017-Nov-22 22:00 UTC.
Position N 36°20' E 014°55'.

Length 249 m; draft 8.5 m.

Type: Tanker. MMSI: 229038000.

Date/timePositionNaut miles runAvg speedWind from/ knotsBaromVisibWave heightAir tempDewpointWater temp
2017-Nov-15 22:26N 36°20' E 014°55'712.0
2017-Nov-15 21:52N 36°23' E 014°47'411.9
2017-Nov-15 21:30N 36°25' E 014°42'612.3
2017-Nov-15 21:00N 36°28' E 014°35'612.4
2017-Nov-15 20:30N 36°31' E 014°29'612.5
2017-Nov-15 20:00N 36°34' E 014°22'712.8
2017-Nov-15 19:26N 36°37' E 014°14'612.5
2017-Nov-15 18:56N 36°40' E 014°07'2512.3
2017-Nov-15 16:56N 36°52' E 013°40'512.4
2017-Nov-15 16:30N 36°55' E 013°34'24611.8
2017-Nov-14 19:42N 38°37' E 008°52'211.9
2017-Nov-14 19:30N 38°37' E 008°49'5 9.6
2017-Nov-14 19:00N 38°39' E 008°43'4 8.4
2017-Nov-14 18:28N 38°40' E 008°37'  
2017-Nov-10 16:03N 43°23' E 004°56'110.2
2017-Nov-10 16:00N 43°23' E 004°57'2 4.5
2017-Nov-10 15:28N 43°22' E 004°59'0 0.3
2017-Nov-10 14:58N 43°22' E 004°59'0 0.0
2017-Nov-10 14:25N 43°22' E 004°59'0 0.0
2017-Nov-10 13:58N 43°22' E 004°59'0 0.0
2017-Nov-10 13:19N 43°22' E 004°59'0 0.0
2017-Nov-10 12:58N 43°22' E 004°59'0 0.0
2017-Nov-10 12:28N 43°22' E 004°59'0 0.0
2017-Nov-10 11:58N 43°22' E 004°59'0 0.0
2017-Nov-10 11:28N 43°22' E 004°59'0 0.0
2017-Nov-10 10:55N 43°22' E 004°59'0 0.0
2017-Nov-10 10:25N 43°22' E 004°59'0 0.0
2017-Nov-10 09:58N 43°22' E 004°59'0 0.0
2017-Nov-10 09:28N 43°22' E 004°59'0 0.0
2017-Nov-10 08:58N 43°22' E 004°59'0 0.0
2017-Nov-10 08:28N 43°22' E 004°59'0 0.1
2017-Nov-10 07:58N 43°22' E 004°60'0 0.0
2017-Nov-10 07:28N 43°22' E 004°59'0 0.0
2017-Nov-10 06:58N 43°22' E 004°60'0 0.0
2017-Nov-10 06:28N 43°22' E 004°60'0 0.0
2017-Nov-10 05:58N 43°22' E 004°59'0 0.1
2017-Nov-10 05:28N 43°22' E 004°59'0 0.0
2017-Nov-10 04:58N 43°22' E 004°59'0 0.1
2017-Nov-10 04:28N 43°22' E 004°59'0 0.0
2017-Nov-10 03:58N 43°22' E 004°59'0 0.0
2017-Nov-10 03:28N 43°22' E 004°59'0 0.0
2017-Nov-10 02:55N 43°22' E 004°59'0 0.0
2017-Nov-10 02:28N 43°22' E 004°59'0 0.0
2017-Nov-10 01:58N 43°22' E 004°59'0 0.0
2017-Nov-10 01:28N 43°22' E 004°59'0 0.0
2017-Nov-10 00:58N 43°22' E 004°59'0 0.0
2017-Nov-10 00:28N 43°22' E 004°59'0 0.0
2017-Nov-09 23:58N 43°22' E 004°59'0 0.0
2017-Nov-09 23:28N 43°22' E 004°59'0 0.0
2017-Nov-09 22:58N 43°22' E 004°59'0 0.0
2017-Nov-09 22:28N 43°22' E 004°59'0 0.0
2017-Nov-09 21:58N 43°22' E 004°59'0 0.0
2017-Nov-09 21:28N 43°22' E 004°59'0 0.0
2017-Nov-09 20:58N 43°22' E 004°59'0 0.0
2017-Nov-09 20:28N 43°22' E 004°59'0 0.0
2017-Nov-09 19:58N 43°22' E 004°59'0 0.0
2017-Nov-09 19:28N 43°22' E 004°59'0 0.0
2017-Nov-09 18:58N 43°22' E 004°59'0 0.0
2017-Nov-09 18:28N 43°22' E 004°59'0 0.0
2017-Nov-09 17:58N 43°22' E 004°59'0 0.0
2017-Nov-09 17:22N 43°22' E 004°59'0 0.0
2017-Nov-09 16:58N 43°22' E 004°59'0 0.0
2017-Nov-09 16:28N 43°22' E 004°59'0 0.0
2017-Nov-09 15:58N 43°22' E 004°59'0 0.1
2017-Nov-09 15:28N 43°22' E 004°60'0 0.0
2017-Nov-09 14:58N 43°22' E 004°59'0 0.0
2017-Nov-09 14:28N 43°22' E 004°60'0 0.0
2017-Nov-09 13:58N 43°22' E 004°60'0 0.0
2017-Nov-09 13:22N 43°22' E 004°60'0 0.0
2017-Nov-09 12:58N 43°22' E 004°60'0 0.0
2017-Nov-09 12:28N 43°22' E 004°59'0 0.0
2017-Nov-09 11:58N 43°22' E 004°59'0 0.0
2017-Nov-09 11:25N 43°22' E 004°59'0 0.1
2017-Nov-09 10:58N 43°22' E 004°59'0 0.0
2017-Nov-09 10:28N 43°22' E 004°59'0 0.0
2017-Nov-09 09:58N 43°22' E 004°60'0 0.0
2017-Nov-09 09:28N 43°22' E 004°60'0 0.0
2017-Nov-09 08:58N 43°22' E 004°60'0 0.0
2017-Nov-09 08:28N 43°22' E 004°60'0 0.0
2017-Nov-09 07:58N 43°22' E 004°60'0 0.0
2017-Nov-09 07:28N 43°22' E 004°60'0 0.0
2017-Nov-09 06:55N 43°22' E 004°60'0 0.0
2017-Nov-09 06:28N 43°22' E 004°60'0 0.0
2017-Nov-09 05:58N 43°22' E 004°60'0 0.0
2017-Nov-09 05:28N 43°22' E 004°60'0 0.0
2017-Nov-09 04:55N 43°22' E 004°60'0 0.0
2017-Nov-09 04:28N 43°22' E 004°60'0 0.1
2017-Nov-09 03:55N 43°22' E 004°59'0 0.0
2017-Nov-09 03:25N 43°22' E 004°59'0 0.0
2017-Nov-09 02:58N 43°22' E 004°59'0 0.0
2017-Nov-09 02:28N 43°22' E 004°59'0 0.1
2017-Nov-09 01:58N 43°22' E 004°60'0 0.0
2017-Nov-09 01:28N 43°22' E 004°60'0 0.0
2017-Nov-09 00:58N 43°22' E 004°59'0 0.0
2017-Nov-09 00:28N 43°22' E 004°60'0 0.0
2017-Nov-08 23:58N 43°22' E 004°60'0 0.0
2017-Nov-08 23:28N 43°22' E 004°60'0 0.0
2017-Nov-08 22:58N 43°22' E 004°60'0 0.0
2017-Nov-08 22:28N 43°22' E 004°60'0 0.0
2017-Nov-08 21:58N 43°22' E 004°60'0 0.0
2017-Nov-08 21:28N 43°22' E 004°60'0 0.0
2017-Nov-08 20:58N 43°22' E 004°60'0 0.0
2017-Nov-08 20:28N 43°22' E 004°60'0 0.0
2017-Nov-08 19:58N 43°22' E 004°60'0 0.0
2017-Nov-08 19:28N 43°22' E 004°60'0 0.0
2017-Nov-08 18:58N 43°22' E 004°60'0 0.0
2017-Nov-08 18:28N 43°22' E 004°60'0 0.0
2017-Nov-08 17:58N 43°22' E 004°60'0 0.0
2017-Nov-08 17:28N 43°22' E 004°60'0 0.0
2017-Nov-08 16:58N 43°22' E 004°60'0 0.0
2017-Nov-08 16:28N 43°22' E 004°60'0 0.0
2017-Nov-08 15:58N 43°22' E 004°60'0 0.0
2017-Nov-08 15:22N 43°22' E 004°60'0 0.0
2017-Nov-08 14:58N 43°22' E 004°60'0 0.0
2017-Nov-08 14:28N 43°22' E 004°60'0 0.0
2017-Nov-08 13:55N 43°22' E 004°60'0 0.0
2017-Nov-08 13:28N 43°22' E 004°60'0 0.0
2017-Nov-08 12:58N 43°22' E 004°60'0 0.0
2017-Nov-08 12:28N 43°22' E 004°60'0 0.0
2017-Nov-08 11:58N 43°22' E 004°60'0 0.0
2017-Nov-08 11:28N 43°22' E 004°60'0 0.0
2017-Nov-08 10:58N 43°22' E 004°60'0 0.1
2017-Nov-08 10:28N 43°22' E 004°60'0 0.0
2017-Nov-08 09:58N 43°22' E 004°60'0 0.0
2017-Nov-08 09:28N 43°22' E 004°60'0 0.0
2017-Nov-08 08:58N 43°22' E 004°60'0 0.0
2017-Nov-08 08:28N 43°22' E 004°60'0 0.0
2017-Nov-08 07:58N 43°22' E 004°60'0 0.0
2017-Nov-08 07:28N 43°22' E 004°60'0 0.0
2017-Nov-08 06:58N 43°22' E 004°60'0 0.0
2017-Nov-08 06:25N 43°22' E 004°60'0 0.1
2017-Nov-08 05:58N 43°22' E 004°60'0 0.0
2017-Nov-08 05:28N 43°22' E 004°60'0 0.1
2017-Nov-08 04:55N 43°22' E 004°60'0 0.1
2017-Nov-08 04:28N 43°22' E 004°59'0 0.1
2017-Nov-08 03:58N 43°22' E 004°60'0 0.0
2017-Nov-08 03:28N 43°22' E 004°60'0 0.0
2017-Nov-08 02:58N 43°22' E 004°60'0 0.0
2017-Nov-08 02:28N 43°22' E 004°59'0 0.0
2017-Nov-08 01:58N 43°22' E 004°59'0 0.0
2017-Nov-08 01:28N 43°22' E 004°59'0 0.0
2017-Nov-08 00:58N 43°22' E 004°59'0 0.0
2017-Nov-08 00:28N 43°22' E 004°59'0 0.0
2017-Nov-07 23:58N 43°22' E 004°60'0 0.0
2017-Nov-07 23:28N 43°22' E 004°60'0 0.1
2017-Nov-07 22:58N 43°22' E 004°60'0 0.0
2017-Nov-07 22:28N 43°22' E 004°60'0 0.0
2017-Nov-07 21:58N 43°22' E 004°60'0 0.0
2017-Nov-07 21:28N 43°22' E 004°60'0 0.0
2017-Nov-07 20:58N 43°22' E 004°60'0 0.0
2017-Nov-07 20:28N 43°22' E 004°60'0 0.0
2017-Nov-07 19:58N 43°22' E 004°60'0 0.0
2017-Nov-07 19:28N 43°22' E 004°60'0 0.0
2017-Nov-07 18:58N 43°22' E 004°60'0 0.0
2017-Nov-07 18:28N 43°22' E 004°59'0 0.0
2017-Nov-07 17:58N 43°22' E 004°60'0 0.0
2017-Nov-07 17:28N 43°22' E 004°60'0 0.0
2017-Nov-07 16:58N 43°22' E 004°60'0 0.0
2017-Nov-07 16:28N 43°22' E 004°60'0 0.0
2017-Nov-07 15:58N 43°22' E 004°59'0 0.0
2017-Nov-07 15:22N 43°22' E 004°59'0 0.0
2017-Nov-07 14:55N 43°22' E 004°59'0 0.1
2017-Nov-07 14:28N 43°22' E 004°59'0 0.1
2017-Nov-07 13:58N 43°22' E 004°59'0 0.0
2017-Nov-07 13:28N 43°22' E 004°59'0 0.0
2017-Nov-07 12:55N 43°22' E 004°59'0 0.0
2017-Nov-07 12:28N 43°22' E 004°59'0 0.0
2017-Nov-07 11:58N 43°22' E 004°59'0 0.0
2017-Nov-07 11:22N 43°22' E 004°59'0 0.0
2017-Nov-07 10:58N 43°22' E 004°59'0 0.0
2017-Nov-07 10:28N 43°22' E 004°59'0 0.0
2017-Nov-07 09:58N 43°22' E 004°60'0 0.0
2017-Nov-07 09:25N 43°22' E 004°60'0 0.0
2017-Nov-07 08:58N 43°22' E 004°60'0 0.0
2017-Nov-07 08:28N 43°22' E 004°60'0 0.0
2017-Nov-07 07:58N 43°22' E 004°59'0 0.0
2017-Nov-07 07:25N 43°22' E 004°59'0 0.0
2017-Nov-07 06:58N 43°22' E 004°59'0 0.0
2017-Nov-07 06:25N 43°22' E 004°59'0 0.0
2017-Nov-07 05:58N 43°22' E 004°59'0 0.0
2017-Nov-07 05:28N 43°22' E 004°59'0 0.0
2017-Nov-07 04:58N 43°22' E 004°59'0 0.0
2017-Nov-07 04:28N 43°22' E 004°59'0 0.0
2017-Nov-07 03:58N 43°22' E 004°59'0 0.0
2017-Nov-07 03:28N 43°22' E 004°60'0 0.0
2017-Nov-07 02:58N 43°22' E 004°60'0 0.0
2017-Nov-07 02:28N 43°22' E 004°60'0 0.0
2017-Nov-07 01:55N 43°22' E 004°60'0 0.0
2017-Nov-07 01:28N 43°22' E 004°60'0 0.0
2017-Nov-07 00:58N 43°22' E 004°60'0 0.0
2017-Nov-07 00:28N 43°22' E 004°60'0 0.0
2017-Nov-06 23:58N 43°22' E 004°59'0 0.0
2017-Nov-06 23:28N 43°22' E 004°59'0 0.0
2017-Nov-06 22:58N 43°22' E 004°60'0 0.0
2017-Nov-06 22:28N 43°22' E 004°60'0 0.0
2017-Nov-06 21:58N 43°22' E 004°60'0 0.0
2017-Nov-06 21:28N 43°22' E 004°59'0 0.0
2017-Nov-06 20:58N 43°22' E 004°59'0 0.0
2017-Nov-06 20:28N 43°22' E 004°59'  
Track history (hours):
 
Tides and Currents Weather Stations Pressure Air Temp Water Temp Dewpoint Dewpoint Depression Visibility Wind Speed Wind Dir Waves Ship Positions

Mareta

Last reported at 2017-Nov-15 22:26 UTC. Time now 2017-Nov-22 22:00 UTC.
Position N 36°20' E 014°55'.

Length 249 m; draft 8.5 m.

Type: Tanker. MMSI: 229038000.

Date/timePositionNaut miles runAvg speedWind from/ knotsBaromVisibWave heightAir tempDewpointWater temp
2017-Nov-15 22:26N 36°20' E 014°55'712.0
2017-Nov-15 21:52N 36°23' E 014°47'411.9
2017-Nov-15 21:30N 36°25' E 014°42'612.3
2017-Nov-15 21:00N 36°28' E 014°35'612.4
2017-Nov-15 20:30N 36°31' E 014°29'612.5
2017-Nov-15 20:00N 36°34' E 014°22'712.8
2017-Nov-15 19:26N 36°37' E 014°14'612.5
2017-Nov-15 18:56N 36°40' E 014°07'2512.3
2017-Nov-15 16:56N 36°52' E 013°40'512.4
2017-Nov-15 16:30N 36°55' E 013°34'24611.8
2017-Nov-14 19:42N 38°37' E 008°52'211.9
2017-Nov-14 19:30N 38°37' E 008°49'5 9.6
2017-Nov-14 19:00N 38°39' E 008°43'4 8.4
2017-Nov-14 18:28N 38°40' E 008°37'  
2017-Nov-10 16:03N 43°23' E 004°56'110.2
2017-Nov-10 16:00N 43°23' E 004°57'2 4.5
2017-Nov-10 15:28N 43°22' E 004°59'0 0.3
2017-Nov-10 14:58N 43°22' E 004°59'0 0.0
2017-Nov-10 14:25N 43°22' E 004°59'0 0.0
2017-Nov-10 13:58N 43°22' E 004°59'0 0.0
2017-Nov-10 13:19N 43°22' E 004°59'0 0.0
2017-Nov-10 12:58N 43°22' E 004°59'0 0.0
2017-Nov-10 12:28N 43°22' E 004°59'0 0.0
2017-Nov-10 11:58N 43°22' E 004°59'0 0.0
2017-Nov-10 11:28N 43°22' E 004°59'0 0.0
2017-Nov-10 10:55N 43°22' E 004°59'0 0.0
2017-Nov-10 10:25N 43°22' E 004°59'0 0.0
2017-Nov-10 09:58N 43°22' E 004°59'0 0.0
2017-Nov-10 09:28N 43°22' E 004°59'0 0.0
2017-Nov-10 08:58N 43°22' E 004°59'0 0.0
2017-Nov-10 08:28N 43°22' E 004°59'0 0.1
2017-Nov-10 07:58N 43°22' E 004°60'0 0.0
2017-Nov-10 07:28N 43°22' E 004°59'0 0.0
2017-Nov-10 06:58N 43°22' E 004°60'0 0.0
2017-Nov-10 06:28N 43°22' E 004°60'0 0.0
2017-Nov-10 05:58N 43°22' E 004°59'0 0.1
2017-Nov-10 05:28N 43°22' E 004°59'0 0.0
2017-Nov-10 04:58N 43°22' E 004°59'0 0.1
2017-Nov-10 04:28N 43°22' E 004°59'0 0.0
2017-Nov-10 03:58N 43°22' E 004°59'0 0.0
2017-Nov-10 03:28N 43°22' E 004°59'0 0.0
2017-Nov-10 02:55N 43°22' E 004°59'0 0.0
2017-Nov-10 02:28N 43°22' E 004°59'0 0.0
2017-Nov-10 01:58N 43°22' E 004°59'0 0.0
2017-Nov-10 01:28N 43°22' E 004°59'0 0.0
2017-Nov-10 00:58N 43°22' E 004°59'0 0.0
2017-Nov-10 00:28N 43°22' E 004°59'0 0.0
2017-Nov-09 23:58N 43°22' E 004°59'0 0.0
2017-Nov-09 23:28N 43°22' E 004°59'0 0.0
2017-Nov-09 22:58N 43°22' E 004°59'0 0.0
2017-Nov-09 22:28N 43°22' E 004°59'0 0.0
2017-Nov-09 21:58N 43°22' E 004°59'0 0.0
2017-Nov-09 21:28N 43°22' E 004°59'0 0.0
2017-Nov-09 20:58N 43°22' E 004°59'0 0.0
2017-Nov-09 20:28N 43°22' E 004°59'0 0.0
2017-Nov-09 19:58N 43°22' E 004°59'0 0.0
2017-Nov-09 19:28N 43°22' E 004°59'0 0.0
2017-Nov-09 18:58N 43°22' E 004°59'0 0.0
2017-Nov-09 18:28N 43°22' E 004°59'0 0.0
2017-Nov-09 17:58N 43°22' E 004°59'0 0.0
2017-Nov-09 17:22N 43°22' E 004°59'0 0.0
2017-Nov-09 16:58N 43°22' E 004°59'0 0.0
2017-Nov-09 16:28N 43°22' E 004°59'0 0.0
2017-Nov-09 15:58N 43°22' E 004°59'0 0.1
2017-Nov-09 15:28N 43°22' E 004°60'0 0.0
2017-Nov-09 14:58N 43°22' E 004°59'0 0.0
2017-Nov-09 14:28N 43°22' E 004°60'0 0.0
2017-Nov-09 13:58N 43°22' E 004°60'0 0.0
2017-Nov-09 13:22N 43°22' E 004°60'0 0.0
2017-Nov-09 12:58N 43°22' E 004°60'0 0.0
2017-Nov-09 12:28N 43°22' E 004°59'0 0.0
2017-Nov-09 11:58N 43°22' E 004°59'0 0.0
2017-Nov-09 11:25N 43°22' E 004°59'0 0.1
2017-Nov-09 10:58N 43°22' E 004°59'0 0.0
2017-Nov-09 10:28N 43°22' E 004°59'0 0.0
2017-Nov-09 09:58N 43°22' E 004°60'0 0.0
2017-Nov-09 09:28N 43°22' E 004°60'0 0.0
2017-Nov-09 08:58N 43°22' E 004°60'0 0.0
2017-Nov-09 08:28N 43°22' E 004°60'0 0.0
2017-Nov-09 07:58N 43°22' E 004°60'0 0.0
2017-Nov-09 07:28N 43°22' E 004°60'0 0.0
2017-Nov-09 06:55N 43°22' E 004°60'0 0.0
2017-Nov-09 06:28N 43°22' E 004°60'0 0.0
2017-Nov-09 05:58N 43°22' E 004°60'0 0.0
2017-Nov-09 05:28N 43°22' E 004°60'0 0.0
2017-Nov-09 04:55N 43°22' E 004°60'0 0.0
2017-Nov-09 04:28N 43°22' E 004°60'0 0.1
2017-Nov-09 03:55N 43°22' E 004°59'0 0.0
2017-Nov-09 03:25N 43°22' E 004°59'0 0.0
2017-Nov-09 02:58N 43°22' E 004°59'0 0.0
2017-Nov-09 02:28N 43°22' E 004°59'0 0.1
2017-Nov-09 01:58N 43°22' E 004°60'0 0.0
2017-Nov-09 01:28N 43°22' E 004°60'0 0.0
2017-Nov-09 00:58N 43°22' E 004°59'0 0.0
2017-Nov-09 00:28N 43°22' E 004°60'0 0.0
2017-Nov-08 23:58N 43°22' E 004°60'0 0.0
2017-Nov-08 23:28N 43°22' E 004°60'0 0.0
2017-Nov-08 22:58N 43°22' E 004°60'0 0.0
2017-Nov-08 22:28N 43°22' E 004°60'0 0.0
2017-Nov-08 21:58N 43°22' E 004°60'0 0.0
2017-Nov-08 21:28N 43°22' E 004°60'0 0.0
2017-Nov-08 20:58N 43°22' E 004°60'0 0.0
2017-Nov-08 20:28N 43°22' E 004°60'0 0.0
2017-Nov-08 19:58N 43°22' E 004°60'0 0.0
2017-Nov-08 19:28N 43°22' E 004°60'0 0.0
2017-Nov-08 18:58N 43°22' E 004°60'0 0.0
2017-Nov-08 18:28N 43°22' E 004°60'0 0.0
2017-Nov-08 17:58N 43°22' E 004°60'0 0.0
2017-Nov-08 17:28N 43°22' E 004°60'0 0.0
2017-Nov-08 16:58N 43°22' E 004°60'0 0.0
2017-Nov-08 16:28N 43°22' E 004°60'0 0.0
2017-Nov-08 15:58N 43°22' E 004°60'0 0.0
2017-Nov-08 15:22N 43°22' E 004°60'0 0.0
2017-Nov-08 14:58N 43°22' E 004°60'0 0.0
2017-Nov-08 14:28N 43°22' E 004°60'0 0.0
2017-Nov-08 13:55N 43°22' E 004°60'0 0.0
2017-Nov-08 13:28N 43°22' E 004°60'0 0.0
2017-Nov-08 12:58N 43°22' E 004°60'0 0.0
2017-Nov-08 12:28N 43°22' E 004°60'0 0.0
2017-Nov-08 11:58N 43°22' E 004°60'0 0.0
2017-Nov-08 11:28N 43°22' E 004°60'0 0.0
2017-Nov-08 10:58N 43°22' E 004°60'0 0.1
2017-Nov-08 10:28N 43°22' E 004°60'0 0.0
2017-Nov-08 09:58N 43°22' E 004°60'0 0.0
2017-Nov-08 09:28N 43°22' E 004°60'0 0.0
2017-Nov-08 08:58N 43°22' E 004°60'0 0.0
2017-Nov-08 08:28N 43°22' E 004°60'0 0.0
2017-Nov-08 07:58N 43°22' E 004°60'0 0.0
2017-Nov-08 07:28N 43°22' E 004°60'0 0.0
2017-Nov-08 06:58N 43°22' E 004°60'0 0.0
2017-Nov-08 06:25N 43°22' E 004°60'0 0.1
2017-Nov-08 05:58N 43°22' E 004°60'0 0.0
2017-Nov-08 05:28N 43°22' E 004°60'0 0.1
2017-Nov-08 04:55N 43°22' E 004°60'0 0.1
2017-Nov-08 04:28N 43°22' E 004°59'0 0.1
2017-Nov-08 03:58N 43°22' E 004°60'0 0.0
2017-Nov-08 03:28N 43°22' E 004°60'0 0.0
2017-Nov-08 02:58N 43°22' E 004°60'0 0.0
2017-Nov-08 02:28N 43°22' E 004°59'0 0.0
2017-Nov-08 01:58N 43°22' E 004°59'0 0.0
2017-Nov-08 01:28N 43°22' E 004°59'0 0.0
2017-Nov-08 00:58N 43°22' E 004°59'0 0.0
2017-Nov-08 00:28N 43°22' E 004°59'0 0.0
2017-Nov-07 23:58N 43°22' E 004°60'0 0.0
2017-Nov-07 23:28N 43°22' E 004°60'0 0.1
2017-Nov-07 22:58N 43°22' E 004°60'0 0.0
2017-Nov-07 22:28N 43°22' E 004°60'0 0.0
2017-Nov-07 21:58N 43°22' E 004°60'0 0.0
2017-Nov-07 21:28N 43°22' E 004°60'0 0.0
2017-Nov-07 20:58N 43°22' E 004°60'0 0.0
2017-Nov-07 20:28N 43°22' E 004°60'0 0.0
2017-Nov-07 19:58N 43°22' E 004°60'0 0.0
2017-Nov-07 19:28N 43°22' E 004°60'0 0.0
2017-Nov-07 18:58N 43°22' E 004°60'0 0.0
2017-Nov-07 18:28N 43°22' E 004°59'0 0.0
2017-Nov-07 17:58N 43°22' E 004°60'0 0.0
2017-Nov-07 17:28N 43°22' E 004°60'0 0.0
2017-Nov-07 16:58N 43°22' E 004°60'0 0.0
2017-Nov-07 16:28N 43°22' E 004°60'0 0.0
2017-Nov-07 15:58N 43°22' E 004°59'0 0.0
2017-Nov-07 15:22N 43°22' E 004°59'0 0.0
2017-Nov-07 14:55N 43°22' E 004°59'0 0.1
2017-Nov-07 14:28N 43°22' E 004°59'0 0.1
2017-Nov-07 13:58N 43°22' E 004°59'0 0.0
2017-Nov-07 13:28N 43°22' E 004°59'0 0.0
2017-Nov-07 12:55N 43°22' E 004°59'0 0.0
2017-Nov-07 12:28N 43°22' E 004°59'0 0.0
2017-Nov-07 11:58N 43°22' E 004°59'0 0.0
2017-Nov-07 11:22N 43°22' E 004°59'0 0.0
2017-Nov-07 10:58N 43°22' E 004°59'0 0.0
2017-Nov-07 10:28N 43°22' E 004°59'0 0.0
2017-Nov-07 09:58N 43°22' E 004°60'0 0.0
2017-Nov-07 09:25N 43°22' E 004°60'0 0.0
2017-Nov-07 08:58N 43°22' E 004°60'0 0.0
2017-Nov-07 08:28N 43°22' E 004°60'0 0.0
2017-Nov-07 07:58N 43°22' E 004°59'0 0.0
2017-Nov-07 07:25N 43°22' E 004°59'0 0.0
2017-Nov-07 06:58N 43°22' E 004°59'0 0.0
2017-Nov-07 06:25N 43°22' E 004°59'0 0.0
2017-Nov-07 05:58N 43°22' E 004°59'0 0.0
2017-Nov-07 05:28N 43°22' E 004°59'0 0.0
2017-Nov-07 04:58N 43°22' E 004°59'0 0.0
2017-Nov-07 04:28N 43°22' E 004°59'0 0.0
2017-Nov-07 03:58N 43°22' E 004°59'0 0.0
2017-Nov-07 03:28N 43°22' E 004°60'0 0.0
2017-Nov-07 02:58N 43°22' E 004°60'0 0.0
2017-Nov-07 02:28N 43°22' E 004°60'0 0.0
2017-Nov-07 01:55N 43°22' E 004°60'0 0.0
2017-Nov-07 01:28N 43°22' E 004°60'0 0.0
2017-Nov-07 00:58N 43°22' E 004°60'0 0.0
2017-Nov-07 00:28N 43°22' E 004°60'0 0.0
2017-Nov-06 23:58N 43°22' E 004°59'0 0.0
2017-Nov-06 23:28N 43°22' E 004°59'0 0.0
2017-Nov-06 22:58N 43°22' E 004°60'0 0.0
2017-Nov-06 22:28N 43°22' E 004°60'0 0.0
2017-Nov-06 21:58N 43°22' E 004°60'0 0.0
2017-Nov-06 21:28N 43°22' E 004°59'0 0.0
2017-Nov-06 20:58N 43°22' E 004°59'0 0.0
2017-Nov-06 20:28N 43°22' E 004°59'  

Dump ship's entire track history